sensor_id;sensor_type;location;lat;lon;timestamp;pressure;altitude;pressure_sealevel;temperature;humidity
13312;BME280;34033;48.672;9.376;2022-07-25T00:01:46;98314.56;;;25.67;56.88
13312;BME280;34033;48.672;9.376;2022-07-25T00:04:11;98319.28;;;25.55;57.48
13312;BME280;34033;48.672;9.376;2022-07-25T00:06:39;98304.41;;;25.51;57.86
13312;BME280;34033;48.672;9.376;2022-07-25T00:09:05;98315.09;;;25.36;58.28
13312;BME280;34033;48.672;9.376;2022-07-25T00:11:30;98312.03;;;25.25;58.35
13312;BME280;34033;48.672;9.376;2022-07-25T00:13:56;98314.38;;;25.12;58.91
13312;BME280;34033;48.672;9.376;2022-07-25T00:16:21;98303.03;;;25.17;58.75
13312;BME280;34033;48.672;9.376;2022-07-25T00:18:47;98309.25;;;25.16;58.93
13312;BME280;34033;48.672;9.376;2022-07-25T00:21:12;98305.00;;;25.26;58.73
13312;BME280;34033;48.672;9.376;2022-07-25T00:23:38;98309.34;;;25.36;58.50
13312;BME280;34033;48.672;9.376;2022-07-25T00:26:04;98305.19;;;25.37;58.33
13312;BME280;34033;48.672;9.376;2022-07-25T00:28:30;98299.69;;;25.19;58.86
13312;BME280;34033;48.672;9.376;2022-07-25T00:30:55;98303.63;;;25.07;59.41
13312;BME280;34033;48.672;9.376;2022-07-25T00:33:21;98308.94;;;24.99;59.91
13312;BME280;34033;48.672;9.376;2022-07-25T00:35:46;98301.00;;;24.79;60.32
13312;BME280;34033;48.672;9.376;2022-07-25T00:38:11;98302.94;;;24.73;60.92
13312;BME280;34033;48.672;9.376;2022-07-25T00:40:37;98301.72;;;24.65;61.21
13312;BME280;34033;48.672;9.376;2022-07-25T00:43:03;98311.53;;;24.73;60.83
13312;BME280;34033;48.672;9.376;2022-07-25T00:45:28;98308.78;;;24.79;60.68
13312;BME280;34033;48.672;9.376;2022-07-25T00:47:53;98307.88;;;24.73;60.86
13312;BME280;34033;48.672;9.376;2022-07-25T00:50:19;98305.22;;;24.69;60.72
13312;BME280;34033;48.672;9.376;2022-07-25T00:52:45;98305.22;;;24.69;61.06
13312;BME280;34033;48.672;9.376;2022-07-25T00:55:11;98299.41;;;24.78;60.55
13312;BME280;34033;48.672;9.376;2022-07-25T00:57:37;98306.34;;;24.86;60.23
13312;BME280;34033;48.672;9.376;2022-07-25T01:00:09;98297.50;;;24.99;59.35
13312;BME280;34033;48.672;9.376;2022-07-25T01:02:35;98295.03;;;25.07;59.70
13312;BME280;34033;48.672;9.376;2022-07-25T01:05:01;98301.34;;;25.11;59.04
13312;BME280;34033;48.672;9.376;2022-07-25T01:07:26;98298.47;;;25.11;59.08
13312;BME280;34033;48.672;9.376;2022-07-25T01:09:52;98305.91;;;25.03;58.89
13312;BME280;34033;48.672;9.376;2022-07-25T01:12:18;98303.09;;;24.93;59.25
13312;BME280;34033;48.672;9.376;2022-07-25T01:14:43;98293.09;;;24.74;59.84
13312;BME280;34033;48.672;9.376;2022-07-25T01:17:09;98307.44;;;24.65;60.27
13312;BME280;34033;48.672;9.376;2022-07-25T01:19:34;98302.59;;;24.57;60.51
13312;BME280;34033;48.672;9.376;2022-07-25T01:22:00;98299.44;;;24.55;60.64
13312;BME280;34033;48.672;9.376;2022-07-25T01:24:25;98307.84;;;24.58;60.47
13312;BME280;34033;48.672;9.376;2022-07-25T01:26:51;98295.44;;;24.61;60.35
13312;BME280;34033;48.672;9.376;2022-07-25T01:29:16;98294.28;;;24.82;60.02
13312;BME280;34033;48.672;9.376;2022-07-25T01:31:42;98278.13;;;24.79;60.23
13312;BME280;34033;48.672;9.376;2022-07-25T01:34:07;98291.88;;;24.90;59.78
13312;BME280;34033;48.672;9.376;2022-07-25T01:36:32;98281.72;;;24.89;59.73
13312;BME280;34033;48.672;9.376;2022-07-25T01:38:58;98286.00;;;24.84;59.83
13312;BME280;34033;48.672;9.376;2022-07-25T01:41:23;98282.97;;;24.88;59.57
13312;BME280;34033;48.672;9.376;2022-07-25T01:43:49;98279.97;;;24.82;59.82
13312;BME280;34033;48.672;9.376;2022-07-25T01:46:14;98286.31;;;24.86;59.74
13312;BME280;34033;48.672;9.376;2022-07-25T01:48:40;98271.88;;;24.66;60.39
13312;BME280;34033;48.672;9.376;2022-07-25T01:51:05;98273.94;;;24.66;60.37
13312;BME280;34033;48.672;9.376;2022-07-25T01:53:31;98267.53;;;24.71;60.17
13312;BME280;34033;48.672;9.376;2022-07-25T01:55:56;98265.47;;;24.71;60.21
13312;BME280;34033;48.672;9.376;2022-07-25T01:58:21;98276.53;;;24.64;60.09
13312;BME280;34033;48.672;9.376;2022-07-25T02:00:47;98282.50;;;24.51;60.65
13312;BME280;34033;48.672;9.376;2022-07-25T02:03:12;98275.88;;;24.45;60.75
13312;BME280;34033;48.672;9.376;2022-07-25T02:06:01;98274.66;;;24.37;60.66
13312;BME280;34033;48.672;9.376;2022-07-25T02:08:27;98271.94;;;24.19;61.54
13312;BME280;34033;48.672;9.376;2022-07-25T02:10:53;98267.22;;;24.06;61.87
13312;BME280;34033;48.672;9.376;2022-07-25T02:13:19;98265.72;;;23.96;62.20
13312;BME280;34033;48.672;9.376;2022-07-25T02:15:44;98264.84;;;24.05;62.10
13312;BME280;34033;48.672;9.376;2022-07-25T02:18:10;98271.72;;;23.98;62.04
13312;BME280;34033;48.672;9.376;2022-07-25T02:20:35;98268.13;;;23.89;62.34
13312;BME280;34033;48.672;9.376;2022-07-25T02:23:02;98262.34;;;23.74;62.98
13312;BME280;34033;48.672;9.376;2022-07-25T02:25:27;98261.44;;;23.68;63.33
13312;BME280;34033;48.672;9.376;2022-07-25T02:27:52;98255.72;;;23.68;63.54
13312;BME280;34033;48.672;9.376;2022-07-25T02:30:18;98261.22;;;23.81;62.85
13312;BME280;34033;48.672;9.376;2022-07-25T02:32:43;98256.22;;;23.90;62.56
13312;BME280;34033;48.672;9.376;2022-07-25T02:35:08;98259.94;;;24.05;62.07
13312;BME280;34033;48.672;9.376;2022-07-25T02:37:34;98261.72;;;24.03;61.82
13312;BME280;34033;48.672;9.376;2022-07-25T02:39:59;98259.75;;;23.85;62.29
13312;BME280;34033;48.672;9.376;2022-07-25T02:42:25;98253.31;;;23.76;62.76
13312;BME280;34033;48.672;9.376;2022-07-25T02:44:50;98257.78;;;23.67;62.87
13312;BME280;34033;48.672;9.376;2022-07-25T02:47:16;98255.91;;;23.64;63.09
13312;BME280;34033;48.672;9.376;2022-07-25T02:49:41;98248.75;;;23.69;62.95
13312;BME280;34033;48.672;9.376;2022-07-25T02:52:06;98240.69;;;23.91;62.22
13312;BME280;34033;48.672;9.376;2022-07-25T02:54:32;98237.22;;;24.11;61.32
13312;BME280;34033;48.672;9.376;2022-07-25T02:56:57;98237.00;;;24.24;60.78
13312;BME280;34033;48.672;9.376;2022-07-25T02:59:23;98238.13;;;24.41;60.45
13312;BME280;34033;48.672;9.376;2022-07-25T03:01:48;98236.78;;;24.51;59.92
13312;BME280;34033;48.672;9.376;2022-07-25T03:04:13;98235.09;;;24.59;59.62
13312;BME280;34033;48.672;9.376;2022-07-25T03:06:39;98219.34;;;24.64;59.45
13312;BME280;34033;48.672;9.376;2022-07-25T03:09:04;98234.94;;;24.63;59.32
13312;BME280;34033;48.672;9.376;2022-07-25T03:11:30;98229.09;;;24.57;59.19
13312;BME280;34033;48.672;9.376;2022-07-25T03:13:55;98227.38;;;24.36;59.84
13312;BME280;34033;48.672;9.376;2022-07-25T03:16:22;98230.44;;;24.08;60.72
13312;BME280;34033;48.672;9.376;2022-07-25T03:18:47;98242.16;;;23.87;61.67
13312;BME280;34033;48.672;9.376;2022-07-25T03:21:12;98237.59;;;23.80;62.05
13312;BME280;34033;48.672;9.376;2022-07-25T03:23:38;98234.16;;;23.67;62.49
13312;BME280;34033;48.672;9.376;2022-07-25T03:26:04;98235.69;;;23.53;62.82
13312;BME280;34033;48.672;9.376;2022-07-25T03:28:29;98239.66;;;23.38;63.59
13312;BME280;34033;48.672;9.376;2022-07-25T03:30:55;98231.78;;;23.65;63.14
13312;BME280;34033;48.672;9.376;2022-07-25T03:33:21;98230.78;;;23.78;62.38
13312;BME280;34033;48.672;9.376;2022-07-25T03:35:46;98226.22;;;23.95;61.53
13312;BME280;34033;48.672;9.376;2022-07-25T03:38:12;98226.09;;;24.13;60.68
13312;BME280;34033;48.672;9.376;2022-07-25T03:40:37;98217.31;;;24.26;60.55
13312;BME280;34033;48.672;9.376;2022-07-25T03:43:03;98221.38;;;24.34;60.02
13312;BME280;34033;48.672;9.376;2022-07-25T03:45:29;98210.53;;;24.38;60.09
13312;BME280;34033;48.672;9.376;2022-07-25T03:47:54;98204.91;;;24.43;59.84
13312;BME280;34033;48.672;9.376;2022-07-25T03:50:19;98211.25;;;24.47;59.48
13312;BME280;34033;48.672;9.376;2022-07-25T03:52:45;98203.16;;;24.46;59.58
13312;BME280;34033;48.672;9.376;2022-07-25T03:55:11;98195.38;;;24.46;59.52
13312;BME280;34033;48.672;9.376;2022-07-25T03:57:37;98203.34;;;24.42;59.41
13312;BME280;34033;48.672;9.376;2022-07-25T04:00:06;98198.94;;;24.41;59.32
13312;BME280;34033;48.672;9.376;2022-07-25T04:02:33;98191.91;;;24.42;59.58
13312;BME280;34033;48.672;9.376;2022-07-25T04:04:58;98190.34;;;24.41;59.54
13312;BME280;34033;48.672;9.376;2022-07-25T04:07:24;98190.16;;;24.45;59.32
13312;BME280;34033;48.672;9.376;2022-07-25T04:09:49;98196.47;;;24.49;58.99
13312;BME280;34033;48.672;9.376;2022-07-25T04:12:15;98191.91;;;24.42;59.18
13312;BME280;34033;48.672;9.376;2022-07-25T04:14:40;98186.19;;;24.42;59.17
13312;BME280;34033;48.672;9.376;2022-07-25T04:17:05;98184.03;;;24.37;59.27
13312;BME280;34033;48.672;9.376;2022-07-25T04:19:31;98187.75;;;24.29;59.45
13312;BME280;34033;48.672;9.376;2022-07-25T04:21:56;98184.34;;;24.16;59.97
13312;BME280;34033;48.672;9.376;2022-07-25T04:24:21;98184.28;;;23.86;60.50
13312;BME280;34033;48.672;9.376;2022-07-25T04:26:47;98186.13;;;23.65;61.77
13312;BME280;34033;48.672;9.376;2022-07-25T04:29:12;98193.06;;;23.41;62.08
13312;BME280;34033;48.672;9.376;2022-07-25T04:31:38;98187.63;;;23.19;63.01
13312;BME280;34033;48.672;9.376;2022-07-25T04:34:03;98188.47;;;23.01;63.87
13312;BME280;34033;48.672;9.376;2022-07-25T04:36:28;98190.91;;;22.84;64.36
13312;BME280;34033;48.672;9.376;2022-07-25T04:38:54;98195.66;;;22.69;65.09
13312;BME280;34033;48.672;9.376;2022-07-25T04:41:19;98190.16;;;22.57;65.44
13312;BME280;34033;48.672;9.376;2022-07-25T04:43:45;98186.06;;;22.49;66.09
13312;BME280;34033;48.672;9.376;2022-07-25T04:46:10;98183.84;;;22.43;66.37
13312;BME280;34033;48.672;9.376;2022-07-25T04:48:36;98198.41;;;22.36;66.72
13312;BME280;34033;48.672;9.376;2022-07-25T04:51:01;98188.28;;;22.35;66.84
13312;BME280;34033;48.672;9.376;2022-07-25T04:53:27;98195.22;;;22.34;66.91
13312;BME280;34033;48.672;9.376;2022-07-25T04:55:52;98193.66;;;22.33;67.21
13312;BME280;34033;48.672;9.376;2022-07-25T04:58:17;98196.19;;;22.31;67.38
13312;BME280;34033;48.672;9.376;2022-07-25T05:00:43;98196.19;;;22.31;67.23
13312;BME280;34033;48.672;9.376;2022-07-25T05:03:09;98192.41;;;22.25;67.43
13312;BME280;34033;48.672;9.376;2022-07-25T05:05:34;98193.50;;;22.28;67.69
13312;BME280;34033;48.672;9.376;2022-07-25T05:07:59;98193.50;;;22.28;67.75
13312;BME280;34033;48.672;9.376;2022-07-25T05:10:26;98190.19;;;22.29;68.11
13312;BME280;34033;48.672;9.376;2022-07-25T05:12:52;98195.88;;;22.29;68.01
13312;BME280;34033;48.672;9.376;2022-07-25T05:15:18;98196.19;;;22.31;67.87
13312;BME280;34033;48.672;9.376;2022-07-25T05:17:44;98189.53;;;22.34;67.99
13312;BME280;34033;48.672;9.376;2022-07-25T05:20:10;98182.91;;;22.37;68.11
13312;BME280;34033;48.672;9.376;2022-07-25T05:22:35;98188.91;;;22.39;67.58
13312;BME280;34033;48.672;9.376;2022-07-25T05:25:01;98195.84;;;22.38;67.49
13312;BME280;34033;48.672;9.376;2022-07-25T05:27:27;98198.09;;;22.43;67.52
13312;BME280;34033;48.672;9.376;2022-07-25T05:29:52;98198.09;;;22.43;67.82
13312;BME280;34033;48.672;9.376;2022-07-25T05:32:18;98200.16;;;22.43;67.83
13312;BME280;34033;48.672;9.376;2022-07-25T05:34:43;98185.41;;;22.44;68.02
13312;BME280;34033;48.672;9.376;2022-07-25T05:37:08;98188.91;;;22.49;67.76
13312;BME280;34033;48.672;9.376;2022-07-25T05:39:34;98189.19;;;22.51;67.85
13312;BME280;34033;48.672;9.376;2022-07-25T05:42:01;98181.78;;;22.53;67.60
13312;BME280;34033;48.672;9.376;2022-07-25T05:44:26;98182.41;;;22.57;67.69
13312;BME280;34033;48.672;9.376;2022-07-25T05:46:52;98180.31;;;22.67;67.30
13312;BME280;34033;48.672;9.376;2022-07-25T05:49:17;98183.94;;;22.67;67.26
13312;BME280;34033;48.672;9.376;2022-07-25T05:51:42;98186.66;;;22.71;67.28
13312;BME280;34033;48.672;9.376;2022-07-25T05:54:08;98182.53;;;22.72;67.02
13312;BME280;34033;48.672;9.376;2022-07-25T05:56:33;98174.31;;;22.74;67.21
13312;BME280;34033;48.672;9.376;2022-07-25T05:58:58;98170.81;;;22.70;67.69
13312;BME280;34033;48.672;9.376;2022-07-25T06:01:24;98163.06;;;22.70;67.48
13312;BME280;34033;48.672;9.376;2022-07-25T06:03:49;98149.00;;;22.76;67.60
13312;BME280;34033;48.672;9.376;2022-07-25T06:06:14;98153.19;;;22.90;67.21
13312;BME280;34033;48.672;9.376;2022-07-25T06:08:40;98144.00;;;22.95;66.75
13312;BME280;34033;48.672;9.376;2022-07-25T06:11:06;98176.16;;;22.95;66.73
13312;BME280;34033;48.672;9.376;2022-07-25T06:13:32;98163.63;;;23.02;66.77
13312;BME280;34033;48.672;9.376;2022-07-25T06:15:58;98164.06;;;23.09;66.27
13312;BME280;34033;48.672;9.376;2022-07-25T06:18:24;98160.84;;;23.16;66.28
13312;BME280;34033;48.672;9.376;2022-07-25T06:20:50;98153.53;;;23.24;66.25
13312;BME280;34033;48.672;9.376;2022-07-25T06:23:16;98163.31;;;23.33;66.19
13312;BME280;34033;48.672;9.376;2022-07-25T06:25:41;98149.97;;;23.39;65.79
13312;BME280;34033;48.672;9.376;2022-07-25T06:28:07;98143.59;;;23.44;65.41
13312;BME280;34033;48.672;9.376;2022-07-25T06:30:33;98133.44;;;23.52;65.38
13312;BME280;34033;48.672;9.376;2022-07-25T06:32:58;98140.66;;;23.62;65.00
13312;BME280;34033;48.672;9.376;2022-07-25T06:35:24;98127.13;;;23.72;64.76
13312;BME280;34033;48.672;9.376;2022-07-25T06:37:49;98123.59;;;23.77;64.45
13312;BME280;34033;48.672;9.376;2022-07-25T06:40:14;98125.28;;;23.83;63.96
13312;BME280;34033;48.672;9.376;2022-07-25T06:42:46;98119.53;;;23.92;63.87
13312;BME280;34033;48.672;9.376;2022-07-25T06:45:13;98127.50;;;24.03;63.26
13312;BME280;34033;48.672;9.376;2022-07-25T06:47:41;98123.78;;;24.11;63.16
13312;BME280;34033;48.672;9.376;2022-07-25T06:50:09;98108.38;;;24.18;62.82
13312;BME280;34033;48.672;9.376;2022-07-25T06:52:35;98115.25;;;24.26;62.46
13312;BME280;34033;48.672;9.376;2022-07-25T06:55:01;98115.97;;;24.36;62.13
13312;BME280;34033;48.672;9.376;2022-07-25T06:57:26;98115.06;;;24.44;61.13
13312;BME280;34033;48.672;9.376;2022-07-25T06:59:52;98113.13;;;24.50;61.06
13312;BME280;34033;48.672;9.376;2022-07-25T07:02:17;98117.66;;;24.57;59.29
13312;BME280;34033;48.672;9.376;2022-07-25T07:04:42;98115.69;;;24.63;59.40
13312;BME280;34033;48.672;9.376;2022-07-25T07:07:08;98120.22;;;24.70;59.45
13312;BME280;34033;48.672;9.376;2022-07-25T07:09:33;98120.59;;;24.77;59.61
13312;BME280;34033;48.672;9.376;2022-07-25T07:11:58;98111.31;;;24.82;58.92
13312;BME280;34033;48.672;9.376;2022-07-25T07:14:24;98114.78;;;24.86;58.69
13312;BME280;34033;48.672;9.376;2022-07-25T07:16:49;98116.75;;;24.95;59.33
13312;BME280;34033;48.672;9.376;2022-07-25T07:19:15;98102.84;;;25.03;59.23
13312;BME280;34033;48.672;9.376;2022-07-25T07:21:41;98098.84;;;25.15;59.05
13312;BME280;34033;48.672;9.376;2022-07-25T07:24:06;98106.31;;;25.27;58.93
13312;BME280;34033;48.672;9.376;2022-07-25T07:26:32;98107.75;;;25.37;58.46
13312;BME280;34033;48.672;9.376;2022-07-25T07:28:58;98098.75;;;25.44;57.82
13312;BME280;34033;48.672;9.376;2022-07-25T07:31:23;98100.91;;;25.49;57.97
13312;BME280;34033;48.672;9.376;2022-07-25T07:33:49;98101.09;;;25.60;57.84
13312;BME280;34033;48.672;9.376;2022-07-25T07:36:14;98094.44;;;25.69;57.42
13312;BME280;34033;48.672;9.376;2022-07-25T07:38:39;98094.94;;;25.67;57.17
13312;BME280;34033;48.672;9.376;2022-07-25T07:41:05;98093.72;;;25.74;57.09
13312;BME280;34033;48.672;9.376;2022-07-25T07:43:31;98093.94;;;25.91;56.81
13312;BME280;34033;48.672;9.376;2022-07-25T07:45:57;98087.75;;;25.98;56.32
13312;BME280;34033;48.672;9.376;2022-07-25T07:48:29;98092.31;;;26.10;56.65
13312;BME280;34033;48.672;9.376;2022-07-25T07:50:55;98092.44;;;26.21;56.29
13312;BME280;34033;48.672;9.376;2022-07-25T07:53:20;98092.03;;;26.28;55.65
13312;BME280;34033;48.672;9.376;2022-07-25T07:55:46;98086.34;;;26.34;55.56
13312;BME280;34033;48.672;9.376;2022-07-25T07:58:20;98083.50;;;26.34;55.98
13312;BME280;34033;48.672;9.376;2022-07-25T08:00:47;98080.19;;;26.46;55.74
13312;BME280;34033;48.672;9.376;2022-07-25T08:03:17;98085.53;;;26.59;55.66
13312;BME280;34033;48.672;9.376;2022-07-25T08:05:43;98087.72;;;26.70;54.87
13312;BME280;34033;48.672;9.376;2022-07-25T08:08:11;98079.44;;;26.77;54.38
13312;BME280;34033;48.672;9.376;2022-07-25T08:10:39;98087.06;;;26.86;54.29
13312;BME280;34033;48.672;9.376;2022-07-25T08:13:31;98071.00;;;26.94;53.54
13312;BME280;34033;48.672;9.376;2022-07-25T08:15:59;98078.13;;;27.04;53.87
13312;BME280;34033;48.672;9.376;2022-07-25T08:18:26;98082.31;;;27.09;53.63
13312;BME280;34033;48.672;9.376;2022-07-25T08:20:57;98070.41;;;27.21;53.67
13312;BME280;34033;48.672;9.376;2022-07-25T08:23:23;98074.13;;;27.33;53.61
13312;BME280;34033;48.672;9.376;2022-07-25T08:25:49;98070.00;;;27.39;53.33
13312;BME280;34033;48.672;9.376;2022-07-25T08:28:15;98078.91;;;27.47;53.58
13312;BME280;34033;48.672;9.376;2022-07-25T08:30:41;98075.31;;;27.58;52.73
13312;BME280;34033;48.672;9.376;2022-07-25T08:33:09;98072.00;;;27.70;52.05
13312;BME280;34033;48.672;9.376;2022-07-25T08:35:35;98068.63;;;27.72;52.46
13312;BME280;34033;48.672;9.376;2022-07-25T08:38:02;98074.41;;;27.83;52.40
13312;BME280;34033;48.672;9.376;2022-07-25T08:40:30;98068.44;;;27.98;53.13
13312;BME280;34033;48.672;9.376;2022-07-25T08:42:55;98072.19;;;28.15;52.80
13312;BME280;34033;48.672;9.376;2022-07-25T08:45:23;98070.91;;;28.33;52.18
13312;BME280;34033;48.672;9.376;2022-07-25T08:47:50;98067.50;;;28.45;51.82
13312;BME280;34033;48.672;9.376;2022-07-25T08:50:18;98062.31;;;28.55;51.35
13312;BME280;34033;48.672;9.376;2022-07-25T08:52:45;98048.72;;;28.61;51.33
13312;BME280;34033;48.672;9.376;2022-07-25T08:55:14;98062.59;;;28.74;51.84
13312;BME280;34033;48.672;9.376;2022-07-25T08:57:41;98059.72;;;28.85;51.27
13312;BME280;34033;48.672;9.376;2022-07-25T09:00:09;98056.81;;;29.01;48.86
13312;BME280;34033;48.672;9.376;2022-07-25T09:02:36;98057.59;;;29.13;47.98
13312;BME280;34033;48.672;9.376;2022-07-25T09:05:02;98052.59;;;29.25;48.41
13312;BME280;34033;48.672;9.376;2022-07-25T09:07:36;98043.94;;;29.47;46.32
13312;BME280;34033;48.672;9.376;2022-07-25T09:10:22;98039.94;;;29.61;46.71
13312;BME280;34033;48.672;9.376;2022-07-25T09:12:58;98046.19;;;29.71;46.38
13312;BME280;34033;48.672;9.376;2022-07-25T09:15:30;98041.41;;;29.84;46.17
13312;BME280;34033;48.672;9.376;2022-07-25T09:17:57;98034.84;;;29.95;44.21
13312;BME280;34033;48.672;9.376;2022-07-25T09:20:34;98030.59;;;30.02;44.67
13312;BME280;34033;48.672;9.376;2022-07-25T09:23:00;98035.00;;;30.14;43.73
13312;BME280;34033;48.672;9.376;2022-07-25T09:25:27;98035.19;;;30.21;44.16
13312;BME280;34033;48.672;9.376;2022-07-25T09:27:55;98030.72;;;30.26;43.93
13312;BME280;34033;48.672;9.376;2022-07-25T09:30:21;98026.72;;;30.35;43.89
13312;BME280;34033;48.672;9.376;2022-07-25T09:32:46;98028.50;;;30.49;43.89
13312;BME280;34033;48.672;9.376;2022-07-25T09:35:12;98033.94;;;30.58;43.76
13312;BME280;34033;48.672;9.376;2022-07-25T09:37:38;98029.31;;;30.74;42.71
13312;BME280;34033;48.672;9.376;2022-07-25T09:40:12;98030.00;;;30.85;42.04
13312;BME280;34033;48.672;9.376;2022-07-25T09:42:39;98028.81;;;30.99;42.32
13312;BME280;34033;48.672;9.376;2022-07-25T09:45:12;98025.31;;;31.12;40.58
13312;BME280;34033;48.672;9.376;2022-07-25T09:47:59;98024.66;;;31.25;40.28
13312;BME280;34033;48.672;9.376;2022-07-25T09:50:27;98013.78;;;31.36;39.42
13312;BME280;34033;48.672;9.376;2022-07-25T09:52:54;98011.69;;;31.56;39.24
13312;BME280;34033;48.672;9.376;2022-07-25T09:55:21;98018.47;;;31.64;39.21
13312;BME280;34033;48.672;9.376;2022-07-25T09:57:47;98014.88;;;31.76;38.05
13312;BME280;34033;48.672;9.376;2022-07-25T10:00:19;98007.06;;;31.90;38.04
13312;BME280;34033;48.672;9.376;2022-07-25T10:03:14;98012.25;;;31.97;36.84
13312;BME280;34033;48.672;9.376;2022-07-25T10:06:18;98011.84;;;32.06;37.30
13312;BME280;34033;48.672;9.376;2022-07-25T10:08:45;97990.69;;;32.17;36.70
13312;BME280;34033;48.672;9.376;2022-07-25T10:11:23;97996.63;;;32.24;36.88
13312;BME280;34033;48.672;9.376;2022-07-25T10:13:50;97987.06;;;32.29;35.41
13312;BME280;34033;48.672;9.376;2022-07-25T10:16:24;97986.09;;;32.40;35.66
13312;BME280;34033;48.672;9.376;2022-07-25T10:18:55;97993.59;;;32.49;35.18
13312;BME280;34033;48.672;9.376;2022-07-25T10:21:22;97987.94;;;32.56;35.54
13312;BME280;34033;48.672;9.376;2022-07-25T10:24:03;97988.78;;;32.70;34.93
13312;BME280;34033;48.672;9.376;2022-07-25T10:26:30;97985.25;;;32.77;34.50
13312;BME280;34033;48.672;9.376;2022-07-25T10:28:56;97977.69;;;32.87;34.12
13312;BME280;34033;48.672;9.376;2022-07-25T10:34:00;97977.94;;;33.02;33.83
13312;BME280;34033;48.672;9.376;2022-07-25T10:36:38;97982.81;;;32.94;34.02
13312;BME280;34033;48.672;9.376;2022-07-25T10:39:08;97965.47;;;33.07;33.96
13312;BME280;34033;48.672;9.376;2022-07-25T10:41:37;97974.72;;;33.19;34.29
13312;BME280;34033;48.672;9.376;2022-07-25T10:44:03;97974.97;;;33.34;33.73
13312;BME280;34033;48.672;9.376;2022-07-25T10:46:33;97971.19;;;33.26;33.67
13312;BME280;34033;48.672;9.376;2022-07-25T10:49:02;97969.84;;;33.27;33.03
13312;BME280;34033;48.672;9.376;2022-07-25T10:51:30;97963.69;;;33.04;33.36
13312;BME280;34033;48.672;9.376;2022-07-25T10:53:56;97954.88;;;32.97;34.48
13312;BME280;34033;48.672;9.376;2022-07-25T10:56:27;97961.69;;;33.26;34.45
13312;BME280;34033;48.672;9.376;2022-07-25T10:59:00;97951.78;;;33.47;33.66
13312;BME280;34033;48.672;9.376;2022-07-25T11:01:29;97943.72;;;33.67;33.39
13312;BME280;34033;48.672;9.376;2022-07-25T11:04:04;97934.75;;;33.91;33.19
13312;BME280;34033;48.672;9.376;2022-07-25T11:06:36;97937.97;;;34.01;32.72
13312;BME280;34033;48.672;9.376;2022-07-25T11:11:47;97925.28;;;34.24;32.35
13312;BME280;34033;48.672;9.376;2022-07-25T11:16:40;97921.97;;;34.62;32.61
13312;BME280;34033;48.672;9.376;2022-07-25T11:19:15;97914.97;;;34.78;32.25
13312;BME280;34033;48.672;9.376;2022-07-25T11:21:48;97914.75;;;35.04;31.69
13312;BME280;34033;48.672;9.376;2022-07-25T11:24:14;97916.22;;;35.19;30.84
13312;BME280;34033;48.672;9.376;2022-07-25T11:26:47;97908.13;;;35.25;31.04
13312;BME280;34033;48.672;9.376;2022-07-25T11:29:21;97899.66;;;35.34;30.73
13312;BME280;34033;48.672;9.376;2022-07-25T11:32:00;97908.59;;;35.36;30.29
13312;BME280;34033;48.672;9.376;2022-07-25T11:34:32;97908.59;;;35.36;30.81
13312;BME280;34033;48.672;9.376;2022-07-25T11:37:00;97902.66;;;35.49;30.10
13312;BME280;34033;48.672;9.376;2022-07-25T11:39:27;97895.50;;;35.50;29.02
13312;BME280;34033;48.672;9.376;2022-07-25T11:42:06;97890.88;;;35.63;27.80
13312;BME280;34033;48.672;9.376;2022-07-25T11:44:44;97897.97;;;35.82;27.28
13312;BME280;34033;48.672;9.376;2022-07-25T11:47:29;97884.94;;;35.76;26.72
13312;BME280;34033;48.672;9.376;2022-07-25T11:50:00;97878.38;;;35.83;25.90
13312;BME280;34033;48.672;9.376;2022-07-25T11:52:31;97875.44;;;35.75;26.22
13312;BME280;34033;48.672;9.376;2022-07-25T11:55:03;97883.88;;;35.50;26.98
13312;BME280;34033;48.672;9.376;2022-07-25T11:57:31;97888.44;;;35.38;26.48
13312;BME280;34033;48.672;9.376;2022-07-25T11:59:58;97885.56;;;35.38;25.56
13312;BME280;34033;48.672;9.376;2022-07-25T12:02:29;97872.41;;;35.45;26.00
13312;BME280;34033;48.672;9.376;2022-07-25T12:05:02;97877.88;;;35.64;25.78
13312;BME280;34033;48.672;9.376;2022-07-25T12:07:49;97876.81;;;35.82;26.04
13312;BME280;34033;48.672;9.376;2022-07-25T12:10:21;97874.53;;;36.03;26.21
13312;BME280;34033;48.672;9.376;2022-07-25T12:12:51;97875.72;;;36.00;25.92
13312;BME280;34033;48.672;9.376;2022-07-25T12:15:19;97865.06;;;36.18;25.92
13312;BME280;34033;48.672;9.376;2022-07-25T12:17:45;97860.03;;;36.18;25.08
13312;BME280;34033;48.672;9.376;2022-07-25T12:20:19;97847.25;;;36.44;24.43
13312;BME280;34033;48.672;9.376;2022-07-25T12:22:47;97858.69;;;36.27;24.33
13312;BME280;34033;48.672;9.376;2022-07-25T12:25:13;97860.78;;;36.04;24.77
13312;BME280;34033;48.672;9.376;2022-07-25T12:27:39;97859.38;;;35.89;24.66
13312;BME280;34033;48.672;9.376;2022-07-25T12:30:05;97846.47;;;36.28;25.80
13312;BME280;34033;48.672;9.376;2022-07-25T12:32:31;97841.59;;;36.61;25.07
13312;BME280;34033;48.672;9.376;2022-07-25T12:34:57;97858.88;;;36.90;24.13
13312;BME280;34033;48.672;9.376;2022-07-25T12:37:24;97843.31;;;37.02;23.83
13312;BME280;34033;48.672;9.376;2022-07-25T12:39:50;97841.16;;;37.18;24.12
13312;BME280;34033;48.672;9.376;2022-07-25T12:42:15;97839.41;;;37.07;24.08
13312;BME280;34033;48.672;9.376;2022-07-25T12:44:40;97839.81;;;37.11;24.08
13312;BME280;34033;48.672;9.376;2022-07-25T12:47:06;97835.53;;;37.12;24.30
13312;BME280;34033;48.672;9.376;2022-07-25T12:49:31;97833.34;;;37.28;24.34
13312;BME280;34033;48.672;9.376;2022-07-25T12:51:57;97833.72;;;37.32;25.18
13312;BME280;34033;48.672;9.376;2022-07-25T12:54:22;97835.81;;;37.39;23.81
13312;BME280;34033;48.672;9.376;2022-07-25T12:56:48;97833.56;;;37.70;24.40
13312;BME280;34033;48.672;9.376;2022-07-25T12:59:13;97821.25;;;37.79;24.62
13312;BME280;34033;48.672;9.376;2022-07-25T13:01:38;97836.75;;;37.89;24.26
13312;BME280;34033;48.672;9.376;2022-07-25T13:04:04;97829.13;;;37.94;24.17
13312;BME280;34033;48.672;9.376;2022-07-25T13:06:32;97827.75;;;37.70;23.69
13312;BME280;34033;48.672;9.376;2022-07-25T13:08:57;97826.91;;;37.37;24.41